Archival Weather

Václav Havel Intl Apt

Prague, Czechia (LKPR)

Report from: Friday, May 26, 2023 1:00 PM CEST
Current time: Sunday, July 14, 2024 1:16 PM CEST

Current weather – Weather history – Daily summaries
Weather forecast

Temperature18.0°C (64.4°F)
Dew point8.0°C (46.4°F)
Winds 10 kts (5.1 m/s, 11.5 mph) North (360°)
Visibility6.2 mi. (10 km)
Clouds Few clouds 4,200 ft. (1,280 m)
Ceiling: Broken clouds 4,900 ft. (1,494 m)
Altimeter30.27 in.Hg (1025 mB)
Relative humidity52 %
Density altitude113 ft. (34 m)
Remarks No significant changes expected in the next two hours
Flight conditions Visual Meteorological Conditions
Raw dataLKPR 261100Z 36010KT 9999 FEW042 BKN049 18/08 Q1025 NOSIG
An error has occurred. This application may no longer respond until reloaded. Reload 🗙